createdAt,value
2024-05-09T00:00:03.740Z,11.70
2024-05-09T00:00:18.608Z,11.68
2024-05-09T00:00:30.757Z,11.68
2024-05-09T00:00:39.054Z,11.67
2024-05-09T00:00:46.003Z,11.68
2024-05-09T00:00:55.139Z,11.68
2024-05-09T00:01:05.414Z,11.67
2024-05-09T00:01:15.792Z,11.68
2024-05-09T00:01:26.081Z,11.67
2024-05-09T00:01:36.461Z,11.65
2024-05-09T00:01:46.829Z,11.65
2024-05-09T00:01:57.204Z,11.65
2024-05-09T00:02:07.510Z,11.62
2024-05-09T00:02:17.769Z,11.65
2024-05-09T00:02:28.082Z,11.65
2024-05-09T00:02:38.366Z,11.65
2024-05-09T00:02:48.633Z,11.63
2024-05-09T00:02:58.943Z,11.63
2024-05-09T00:03:10.764Z,11.63
2024-05-09T00:03:19.553Z,11.62
2024-05-09T00:03:29.894Z,11.63
2024-05-09T00:03:40.151Z,11.62
2024-05-09T00:03:50.471Z,11.59
2024-05-09T00:04:00.829Z,11.60
2024-05-09T00:04:11.179Z,11.59
2024-05-09T00:04:21.475Z,11.62
2024-05-09T00:04:31.742Z,11.60
2024-05-09T00:04:42.060Z,11.59
2024-05-09T00:04:52.398Z,11.60
2024-05-09T00:05:02.803Z,11.60
2024-05-09T00:05:13.229Z,11.59
2024-05-09T00:05:23.373Z,11.58
2024-05-09T00:05:33.699Z,11.58
2024-05-09T00:05:44.437Z,11.58
2024-05-09T00:05:54.395Z,11.56
2024-05-09T00:06:04.727Z,11.56
2024-05-09T00:06:15.100Z,11.58
2024-05-09T00:06:25.356Z,11.55
2024-05-09T00:06:35.600Z,11.56
2024-05-09T00:06:45.885Z,11.55
2024-05-09T00:06:56.134Z,11.56
2024-05-09T00:07:06.453Z,11.53
2024-05-09T00:07:16.701Z,11.55
2024-05-09T00:07:26.967Z,11.55
2024-05-09T00:07:37.227Z,11.55
2024-05-09T00:07:47.588Z,11.55
2024-05-09T00:07:57.863Z,11.53
2024-05-09T00:08:08.168Z,11.52
2024-05-09T00:08:18.424Z,11.53
2024-05-09T00:08:28.834Z,11.52
2024-05-09T00:08:38.980Z,11.52
2024-05-09T00:08:49.237Z,11.51
2024-05-09T00:08:59.511Z,11.51
2024-05-09T00:09:09.748Z,11.51
2024-05-09T00:09:20.026Z,11.49
2024-05-09T00:09:30.271Z,11.51
2024-05-09T00:09:40.531Z,11.48
2024-05-09T00:09:50.787Z,11.48
2024-05-09T00:10:01.133Z,11.49
2024-05-09T00:10:18.299Z,11.49
2024-05-09T00:10:29.262Z,11.48
2024-05-09T00:10:40.735Z,11.48
2024-05-09T00:10:42.374Z,11.45
2024-05-09T00:10:52.715Z,11.45
2024-05-09T00:11:03.140Z,11.48
2024-05-09T00:11:13.534Z,11.43
2024-05-09T00:11:23.956Z,11.44
2024-05-09T00:11:44.749Z,11.44
2024-05-09T00:11:55.102Z,11.43
2024-05-09T00:12:05.677Z,11.44
2024-05-09T00:12:15.908Z,11.44
2024-05-09T00:12:26.131Z,11.43
2024-05-09T00:12:36.397Z,11.41
2024-05-09T00:12:46.652Z,11.44
2024-05-09T00:12:56.916Z,11.41
2024-05-09T00:13:07.602Z,11.41
2024-05-09T00:13:17.619Z,11.41
2024-05-09T00:13:27.878Z,11.40
2024-05-09T00:13:38.138Z,11.40
2024-05-09T00:13:48.415Z,11.41
2024-05-09T00:13:58.686Z,11.41
2024-05-09T00:14:08.951Z,11.40
2024-05-09T00:14:19.209Z,11.40
2024-05-09T00:14:29.489Z,11.40
2024-05-09T00:14:39.811Z,11.40
2024-05-09T00:14:50.042Z,11.40
2024-05-09T00:15:00.340Z,11.38
2024-05-09T00:15:10.582Z,11.37
2024-05-09T00:15:20.829Z,11.35
2024-05-09T00:15:31.080Z,11.38
2024-05-09T00:15:41.354Z,11.37
2024-05-09T00:15:51.607Z,11.37
2024-05-09T00:16:01.846Z,11.35
2024-05-09T00:16:12.109Z,11.37
2024-05-09T00:16:22.365Z,11.35
2024-05-09T00:16:32.608Z,11.37
2024-05-09T00:16:42.971Z,11.34
2024-05-09T00:16:53.267Z,11.34
2024-05-09T00:17:03.582Z,11.33
2024-05-09T00:17:13.917Z,11.33
2024-05-09T00:17:24.581Z,11.34
2024-05-09T00:17:34.772Z,11.33
2024-05-09T00:17:45.361Z,11.35
2024-05-09T00:17:55.710Z,11.33
2024-05-09T00:18:06.442Z,11.34
2024-05-09T00:18:16.303Z,11.33
2024-05-09T00:18:26.589Z,11.34
2024-05-09T00:18:36.685Z,11.33
2024-05-09T00:18:47.052Z,11.33
2024-05-09T00:18:57.467Z,11.33
2024-05-09T00:19:07.796Z,11.31
2024-05-09T00:19:18.255Z,11.30
2024-05-09T00:19:28.626Z,11.30
2024-05-09T00:19:39.029Z,11.30
2024-05-09T00:19:49.327Z,11.27
2024-05-09T00:19:59.628Z,11.30
2024-05-09T00:20:17.492Z,11.27
2024-05-09T00:20:28.091Z,11.27
2024-05-09T00:20:37.976Z,11.26
2024-05-09T00:20:41.927Z,11.26
2024-05-09T00:20:51.353Z,11.26
2024-05-09T00:21:01.799Z,11.25
2024-05-09T00:21:11.926Z,11.25
2024-05-09T00:21:22.185Z,11.25
2024-05-09T00:21:32.426Z,11.25
2024-05-09T00:21:42.692Z,11.26
2024-05-09T00:21:52.948Z,11.25
2024-05-09T00:22:03.222Z,11.25
2024-05-09T00:22:13.505Z,11.25
2024-05-09T00:22:23.736Z,11.22
2024-05-09T00:22:33.984Z,11.22
2024-05-09T00:22:44.314Z,11.23
2024-05-09T00:22:54.606Z,11.25
2024-05-09T00:23:04.846Z,11.22
2024-05-09T00:23:15.178Z,11.23
2024-05-09T00:23:25.511Z,11.23
2024-05-09T00:24:16.727Z,11.19
2024-05-09T00:24:26.972Z,11.19
2024-05-09T00:24:37.206Z,11.19
2024-05-09T00:24:47.467Z,11.19
2024-05-09T00:24:57.721Z,11.19
2024-05-09T00:25:07.975Z,11.19
2024-05-09T00:25:18.225Z,11.16
2024-05-09T00:25:28.482Z,11.18
2024-05-09T00:25:38.762Z,11.19
2024-05-09T00:25:49.032Z,11.19
2024-05-09T00:25:59.363Z,11.18
2024-05-09T00:26:09.629Z,11.19
2024-05-09T00:26:19.981Z,11.16
2024-05-09T00:26:30.376Z,11.16
2024-05-09T00:26:40.641Z,11.16
2024-05-09T00:26:50.884Z,11.15
2024-05-09T00:27:01.136Z,11.15
2024-05-09T00:27:13.367Z,11.15
2024-05-09T00:27:21.851Z,11.16
2024-05-09T00:27:32.108Z,11.16
2024-05-09T00:27:42.631Z,11.15
2024-05-09T00:27:52.707Z,11.13
2024-05-09T00:28:03.026Z,11.15
2024-05-09T00:28:13.386Z,11.15
2024-05-09T00:28:23.649Z,11.13
2024-05-09T00:28:33.910Z,11.13
2024-05-09T00:28:44.226Z,11.12
2024-05-09T00:28:54.530Z,11.12
2024-05-09T00:29:04.781Z,11.12
2024-05-09T00:29:15.045Z,11.12
2024-05-09T00:29:25.454Z,11.10
2024-05-09T00:29:35.759Z,11.12
2024-05-09T00:29:45.993Z,11.10
2024-05-09T00:29:56.236Z,11.10
2024-05-09T00:30:07.417Z,11.10
2024-05-09T00:30:24.360Z,11.10
2024-05-09T00:30:34.028Z,11.08
2024-05-09T00:30:38.485Z,11.05
2024-05-09T00:30:47.872Z,11.08
2024-05-09T00:30:58.132Z,11.07
2024-05-09T00:31:08.392Z,11.07
2024-05-09T00:31:18.648Z,11.07
2024-05-09T00:31:28.912Z,11.05
2024-05-09T00:31:39.155Z,11.07
2024-05-09T00:31:49.504Z,11.05
2024-05-09T00:31:59.903Z,11.05
2024-05-09T00:32:10.281Z,11.04
2024-05-09T00:32:20.626Z,11.05
2024-05-09T00:32:31.075Z,11.05
2024-05-09T00:32:41.495Z,11.04
2024-05-09T00:32:52.180Z,11.04
2024-05-09T00:33:02.287Z,11.02
2024-05-09T00:33:12.568Z,11.04
2024-05-09T00:33:22.958Z,11.01
2024-05-09T00:33:33.361Z,11.02
2024-05-09T00:33:43.574Z,11.01
2024-05-09T00:33:53.913Z,11.01
2024-05-09T00:34:04.332Z,11.01
2024-05-09T00:34:14.716Z,11.02
2024-05-09T00:34:25.022Z,11.01
2024-05-09T00:34:35.295Z,11.01
2024-05-09T00:34:45.552Z,11.01
2024-05-09T00:34:55.807Z,11.00
2024-05-09T00:35:06.113Z,11.01
2024-05-09T00:35:16.381Z,10.98
2024-05-09T00:35:26.668Z,11.00
2024-05-09T00:35:36.988Z,10.97
2024-05-09T00:35:47.327Z,10.97
2024-05-09T00:35:57.560Z,10.98
2024-05-09T00:36:07.813Z,10.97
2024-05-09T00:36:18.294Z,10.97
2024-05-09T00:36:28.457Z,10.97
2024-05-09T00:36:38.710Z,10.98
2024-05-09T00:36:48.970Z,10.95
2024-05-09T00:36:59.220Z,10.95
2024-05-09T00:37:09.475Z,10.95
2024-05-09T00:37:19.729Z,10.94
2024-05-09T00:37:29.982Z,10.94
2024-05-09T00:37:40.237Z,10.92
2024-05-09T00:37:50.519Z,10.94
2024-05-09T00:38:01.243Z,10.95
2024-05-09T00:38:11.243Z,10.94
2024-05-09T00:38:21.593Z,10.92
2024-05-09T00:38:31.997Z,10.94
2024-05-09T00:38:42.256Z,10.94
2024-05-09T00:38:52.499Z,10.90
2024-05-09T00:39:02.764Z,10.92
2024-05-09T00:39:13.008Z,10.94
2024-05-09T00:39:23.267Z,10.90
2024-05-09T00:39:33.515Z,10.90
2024-05-09T00:39:43.765Z,10.90
2024-05-09T00:39:54.043Z,10.90
2024-05-09T00:40:05.789Z,10.89
2024-05-09T00:40:22.486Z,10.89
2024-05-09T00:40:34.687Z,10.89
2024-05-09T00:40:40.134Z,10.87
2024-05-09T00:40:46.718Z,10.84
2024-05-09T00:40:56.099Z,10.86
2024-05-09T00:41:06.428Z,10.87
2024-05-09T00:41:19.545Z,10.86
2024-05-09T00:41:26.990Z,10.87
2024-05-09T00:41:37.393Z,10.86
2024-05-09T00:41:47.691Z,10.86
2024-05-09T00:41:57.940Z,10.84
2024-05-09T00:42:08.194Z,10.86
2024-05-09T00:42:18.448Z,10.84
2024-05-09T00:42:28.705Z,10.83
2024-05-09T00:42:38.970Z,10.84
2024-05-09T00:42:49.269Z,10.84
2024-05-09T00:42:59.615Z,10.82
2024-05-09T00:43:10.233Z,10.80
2024-05-09T00:43:20.128Z,10.83
2024-05-09T00:43:30.395Z,10.82
2024-05-09T00:43:40.633Z,10.83
2024-05-09T00:43:50.916Z,10.82
2024-05-09T00:44:01.245Z,10.82
2024-05-09T00:44:11.573Z,10.82
2024-05-09T00:44:21.885Z,10.82
2024-05-09T00:44:32.199Z,10.80
2024-05-09T00:44:42.425Z,10.79
2024-05-09T00:44:52.772Z,10.80
2024-05-09T00:45:03.048Z,10.79
2024-05-09T00:45:13.294Z,10.79
2024-05-09T00:45:23.536Z,10.80
2024-05-09T00:45:33.834Z,10.79
2024-05-09T00:45:44.400Z,10.79
2024-05-09T00:45:54.435Z,10.77
2024-05-09T00:46:04.677Z,10.77
2024-05-09T00:46:14.930Z,10.77
2024-05-09T00:46:25.254Z,10.79
2024-05-09T00:46:35.512Z,10.77
2024-05-09T00:46:45.826Z,10.77
2024-05-09T00:46:56.144Z,10.75
2024-05-09T00:47:06.779Z,10.76
2024-05-09T00:47:16.949Z,10.76
2024-05-09T00:47:27.418Z,10.76
2024-05-09T00:47:37.808Z,10.75
2024-05-09T00:47:48.504Z,10.75
2024-05-09T00:47:58.692Z,10.75
2024-05-09T00:48:10.049Z,10.72
2024-05-09T00:48:21.380Z,10.75
2024-05-09T00:48:29.705Z,10.72
2024-05-09T00:48:39.905Z,10.72
2024-05-09T00:48:50.132Z,10.75
2024-05-09T00:49:00.442Z,10.71
2024-05-09T00:49:10.848Z,10.71
2024-05-09T00:49:21.347Z,10.71
2024-05-09T00:49:31.622Z,10.71
2024-05-09T00:49:42.220Z,10.71
2024-05-09T00:49:52.352Z,10.69
2024-05-09T00:50:04.138Z,10.71
2024-05-09T00:50:19.224Z,10.71
2024-05-09T00:50:30.006Z,10.69
2024-05-09T00:50:36.903Z,10.68
2024-05-09T00:50:44.166Z,10.67
2024-05-09T00:50:54.567Z,10.69
2024-05-09T00:51:04.826Z,10.68
2024-05-09T00:51:15.101Z,10.67
2024-05-09T00:51:25.337Z,10.67
2024-05-09T00:51:35.577Z,10.68
2024-05-09T00:51:45.836Z,10.67
2024-05-09T00:51:56.098Z,10.65
2024-05-09T00:52:06.342Z,10.65
2024-05-09T00:52:16.596Z,10.65
2024-05-09T00:52:26.848Z,10.65
2024-05-09T00:52:37.101Z,10.67
2024-05-09T00:52:47.406Z,10.65
2024-05-09T00:52:57.747Z,10.65
2024-05-09T00:53:08.168Z,10.67
2024-05-09T00:53:18.522Z,10.65
2024-05-09T00:53:28.824Z,10.65
2024-05-09T00:53:39.189Z,10.65
2024-05-09T00:53:49.450Z,10.64
2024-05-09T00:53:59.754Z,10.64
2024-05-09T00:54:11.062Z,10.62
2024-05-09T00:54:20.376Z,10.62
2024-05-09T00:54:30.628Z,10.64
2024-05-09T00:54:41.093Z,10.61
2024-05-09T00:54:51.325Z,10.62
2024-05-09T00:55:01.616Z,10.62
2024-05-09T00:55:11.847Z,10.61
2024-05-09T00:55:22.101Z,10.59
2024-05-09T00:55:32.370Z,10.62
2024-05-09T00:55:42.884Z,10.62
2024-05-09T00:55:52.930Z,10.61
2024-05-09T00:56:03.175Z,10.61
2024-05-09T00:56:13.433Z,10.61
2024-05-09T00:56:23.758Z,10.61
2024-05-09T00:56:34.043Z,10.58
2024-05-09T00:56:44.261Z,10.59
2024-05-09T00:56:54.516Z,10.59
2024-05-09T00:57:04.792Z,10.59
2024-05-09T00:57:15.022Z,10.58
2024-05-09T00:57:25.273Z,10.58
2024-05-09T00:57:35.531Z,10.58
2024-05-09T00:57:45.782Z,10.58
2024-05-09T00:57:56.039Z,10.57
2024-05-09T00:58:06.304Z,10.57
2024-05-09T00:58:16.571Z,10.57
2024-05-09T00:58:26.884Z,10.58
2024-05-09T00:58:37.134Z,10.58
2024-05-09T00:58:47.462Z,10.57
2024-05-09T00:58:57.725Z,10.57
2024-05-09T00:59:08.012Z,10.55
2024-05-09T00:59:18.340Z,10.57
2024-05-09T00:59:28.621Z,10.57
2024-05-09T00:59:38.910Z,10.55
2024-05-09T00:59:49.133Z,10.55
2024-05-09T00:59:59.390Z,10.57
2024-05-09T01:00:22.181Z,10.57
2024-05-09T01:00:27.316Z,10.53
2024-05-09T01:00:38.247Z,10.53
2024-05-09T01:00:42.060Z,10.51
2024-05-09T01:00:51.056Z,10.51
2024-05-09T01:01:01.408Z,10.51
2024-05-09T01:01:13.356Z,10.49
2024-05-09T01:01:22.029Z,10.51
2024-05-09T01:01:32.363Z,10.51
2024-05-09T01:01:42.817Z,10.51
2024-05-09T01:01:53.023Z,10.48
2024-05-09T01:02:03.443Z,10.49
2024-05-09T01:02:13.887Z,10.51
2024-05-09T01:02:24.073Z,10.48
2024-05-09T01:02:34.408Z,10.49
2024-05-09T01:02:44.897Z,10.48
2024-05-09T01:02:55.045Z,10.48
2024-05-09T01:03:05.943Z,10.48
2024-05-09T01:03:15.962Z,10.49
2024-05-09T01:03:27.787Z,10.46
2024-05-09T01:03:36.521Z,10.48
2024-05-09T01:03:49.551Z,10.46
2024-05-09T01:03:57.236Z,10.46
2024-05-09T01:04:07.477Z,10.45
2024-05-09T01:04:17.800Z,10.46
2024-05-09T01:04:28.074Z,10.45
2024-05-09T01:04:38.416Z,10.46
2024-05-09T01:04:48.979Z,10.46
2024-05-09T01:04:59.198Z,10.45
2024-05-09T01:05:09.581Z,10.45
2024-05-09T01:05:19.841Z,10.45
2024-05-09T01:05:30.128Z,10.43
2024-05-09T01:05:40.855Z,10.43
2024-05-09T01:05:50.987Z,10.43
2024-05-09T01:06:01.252Z,10.42
2024-05-09T01:06:11.504Z,10.42
2024-05-09T01:06:21.756Z,10.42
2024-05-09T01:06:32.014Z,10.42
2024-05-09T01:06:42.266Z,10.41
2024-05-09T01:06:52.525Z,10.42
2024-05-09T01:07:02.775Z,10.41
2024-05-09T01:07:13.037Z,10.41
2024-05-09T01:07:23.287Z,10.42
2024-05-09T01:07:33.545Z,10.41
2024-05-09T01:07:43.858Z,10.41
2024-05-09T01:07:54.124Z,10.41
2024-05-09T01:08:04.448Z,10.39
2024-05-09T01:08:14.796Z,10.41
2024-05-09T01:08:25.082Z,10.41
2024-05-09T01:08:35.363Z,10.39
2024-05-09T01:08:45.612Z,10.39
2024-05-09T01:08:55.857Z,10.38
2024-05-09T01:09:06.135Z,10.38
2024-05-09T01:09:16.378Z,10.38
2024-05-09T01:09:26.633Z,10.39
2024-05-09T01:09:36.873Z,10.38
2024-05-09T01:09:47.124Z,10.36
2024-05-09T01:09:57.380Z,10.34
2024-05-09T01:10:13.995Z,10.36
2024-05-09T01:10:27.565Z,10.34
2024-05-09T01:10:34.160Z,10.36
2024-05-09T01:10:41.666Z,10.36
2024-05-09T01:10:49.113Z,10.34
2024-05-09T01:10:59.439Z,10.34
2024-05-09T01:11:09.813Z,10.34
2024-05-09T01:11:20.188Z,10.34
2024-05-09T01:11:30.602Z,10.33
2024-05-09T01:11:40.926Z,10.31
2024-05-09T01:11:51.290Z,10.33
2024-05-09T01:12:01.724Z,10.31
2024-05-09T01:12:12.159Z,10.33
2024-05-09T01:12:22.608Z,10.33
2024-05-09T01:12:32.935Z,10.30
2024-05-09T01:12:43.229Z,10.31
2024-05-09T01:12:53.475Z,10.33
2024-05-09T01:13:03.777Z,10.31
2024-05-09T01:13:14.102Z,10.30
2024-05-09T01:13:24.379Z,10.31
2024-05-09T01:13:34.616Z,10.28
2024-05-09T01:13:45.005Z,10.30
2024-05-09T01:13:55.351Z,10.30
2024-05-09T01:14:05.643Z,10.30
2024-05-09T01:14:15.997Z,10.28
2024-05-09T01:14:26.264Z,10.28
2024-05-09T01:14:36.586Z,10.28
2024-05-09T01:14:46.855Z,10.27
2024-05-09T01:14:57.127Z,10.28
2024-05-09T01:15:07.354Z,10.27
2024-05-09T01:15:17.610Z,10.27
2024-05-09T01:15:27.905Z,10.25
2024-05-09T01:15:38.156Z,10.27
2024-05-09T01:15:48.425Z,10.24
2024-05-09T01:15:58.660Z,10.25
2024-05-09T01:16:08.927Z,10.24
2024-05-09T01:16:19.181Z,10.25
2024-05-09T01:16:29.428Z,10.24
2024-05-09T01:16:39.686Z,10.24
2024-05-09T01:16:49.968Z,10.25
2024-05-09T01:17:00.310Z,10.23
2024-05-09T01:17:10.758Z,10.23
2024-05-09T01:17:20.960Z,10.24
2024-05-09T01:17:31.571Z,10.23
2024-05-09T01:17:41.737Z,10.23
2024-05-09T01:17:52.001Z,10.23
2024-05-09T01:18:02.634Z,10.24
2024-05-09T01:18:13.775Z,10.23
2024-05-09T01:18:23.055Z,10.21
2024-05-09T01:18:33.421Z,10.23
2024-05-09T01:18:43.780Z,10.21
2024-05-09T01:18:54.178Z,10.21
2024-05-09T01:19:04.828Z,10.23
2024-05-09T01:19:14.985Z,10.20
2024-05-09T01:19:25.445Z,10.20
2024-05-09T01:19:35.701Z,10.20
2024-05-09T01:19:45.911Z,10.20
2024-05-09T01:19:56.173Z,10.20
2024-05-09T01:20:10.634Z,10.18
2024-05-09T01:20:22.907Z,10.17
2024-05-09T01:20:39.036Z,10.20
2024-05-09T01:20:42.359Z,10.17
2024-05-09T01:20:48.727Z,10.18
2024-05-09T01:20:58.116Z,10.17
2024-05-09T01:21:08.475Z,10.17
2024-05-09T01:21:18.783Z,10.17
2024-05-09T01:21:29.039Z,10.17
2024-05-09T01:21:39.340Z,10.15
2024-05-09T01:21:49.603Z,10.17
2024-05-09T01:21:59.863Z,10.15
2024-05-09T01:22:10.130Z,10.15
2024-05-09T01:22:20.394Z,10.13
2024-05-09T01:22:30.648Z,10.15
2024-05-09T01:22:40.892Z,10.15
2024-05-09T01:22:51.158Z,10.15
2024-05-09T01:23:01.480Z,10.13
2024-05-09T01:23:12.266Z,10.12
2024-05-09T01:23:22.077Z,10.12
2024-05-09T01:23:32.519Z,10.12
2024-05-09T01:23:42.626Z,10.12
2024-05-09T01:23:52.878Z,10.10
2024-05-09T01:24:03.132Z,10.10
2024-05-09T01:24:13.384Z,10.10
2024-05-09T01:24:23.637Z,10.10
2024-05-09T01:24:33.889Z,10.10
2024-05-09T01:24:44.173Z,10.09
2024-05-09T01:24:54.398Z,10.09
2024-05-09T01:25:04.653Z,10.09
2024-05-09T01:25:14.907Z,10.10
2024-05-09T01:25:25.158Z,10.09
2024-05-09T01:25:35.414Z,10.10
2024-05-09T01:25:46.544Z,10.07
2024-05-09T01:25:56.079Z,10.09
2024-05-09T01:26:06.378Z,10.09
2024-05-09T01:26:16.711Z,10.07
2024-05-09T01:26:27.032Z,10.09
2024-05-09T01:26:37.342Z,10.07
2024-05-09T01:26:47.605Z,10.06
2024-05-09T01:26:57.858Z,10.06
2024-05-09T01:27:08.113Z,10.07
2024-05-09T01:27:18.458Z,10.07
2024-05-09T01:27:28.705Z,10.06
2024-05-09T01:27:38.972Z,10.05
2024-05-09T01:27:49.233Z,10.05
2024-05-09T01:27:59.489Z,10.05
2024-05-09T01:28:09.754Z,10.05
2024-05-09T01:28:20.003Z,10.03
2024-05-09T01:28:30.266Z,10.03
2024-05-09T01:28:40.508Z,10.05
2024-05-09T01:28:50.816Z,10.03
2024-05-09T01:29:01.145Z,10.03
2024-05-09T01:29:11.519Z,10.03
2024-05-09T01:29:21.806Z,10.03
2024-05-09T01:29:32.160Z,10.02
2024-05-09T01:29:42.405Z,10.03
2024-05-09T01:29:52.655Z,10.00
2024-05-09T01:30:04.102Z,10.02
2024-05-09T01:30:17.419Z,10.02
2024-05-09T01:30:31.854Z,9.99
2024-05-09T01:30:37.080Z,9.99
2024-05-09T01:30:44.315Z,10.00
2024-05-09T01:30:54.559Z,9.99
2024-05-09T01:31:04.837Z,9.99
2024-05-09T01:31:15.067Z,9.99
2024-05-09T01:31:25.304Z,9.99
2024-05-09T01:31:35.589Z,9.99
2024-05-09T01:31:45.916Z,9.99
2024-05-09T01:31:56.243Z,9.97
2024-05-09T01:32:06.709Z,9.97
2024-05-09T01:32:16.898Z,9.99
2024-05-09T01:32:27.386Z,9.97
2024-05-09T01:32:37.524Z,9.97
2024-05-09T01:32:47.992Z,9.95
2024-05-09T01:32:58.367Z,9.95
2024-05-09T01:33:10.615Z,9.95
2024-05-09T01:33:19.028Z,9.94
2024-05-09T01:33:29.591Z,9.94
2024-05-09T01:33:39.963Z,9.94
2024-05-09T01:33:50.208Z,9.95
2024-05-09T01:34:00.555Z,9.95
2024-05-09T01:34:10.909Z,9.94
2024-05-09T01:34:21.307Z,9.94
2024-05-09T01:34:31.560Z,9.95
2024-05-09T01:34:42.027Z,9.91
2024-05-09T01:34:52.528Z,9.91
2024-05-09T01:35:03.008Z,9.92
2024-05-09T01:35:13.261Z,9.91
2024-05-09T01:35:23.725Z,9.91
2024-05-09T01:35:33.956Z,9.91
2024-05-09T01:35:44.271Z,9.90
2024-05-09T01:35:54.483Z,9.90
2024-05-09T01:36:04.721Z,9.90
2024-05-09T01:36:14.959Z,9.91
2024-05-09T01:36:25.423Z,9.91
2024-05-09T01:36:35.891Z,9.88
2024-05-09T01:36:46.131Z,9.90
2024-05-09T01:36:56.590Z,9.90
2024-05-09T01:37:07.060Z,9.91
2024-05-09T01:37:17.562Z,9.90
2024-05-09T01:37:27.988Z,9.88
2024-05-09T01:37:38.462Z,9.88
2024-05-09T01:37:48.989Z,9.87
2024-05-09T01:37:59.302Z,9.88
2024-05-09T01:38:09.569Z,9.85
2024-05-09T01:38:20.188Z,9.87
2024-05-09T01:38:30.607Z,9.87
2024-05-09T01:38:40.952Z,9.87
2024-05-09T01:38:51.168Z,9.85
2024-05-09T01:39:01.629Z,9.87
2024-05-09T01:39:12.097Z,9.87
2024-05-09T01:39:22.575Z,9.87
2024-05-09T01:39:33.042Z,9.85
2024-05-09T01:39:43.499Z,9.84
2024-05-09T01:39:53.961Z,9.84
2024-05-09T01:40:07.348Z,9.84
2024-05-09T01:40:22.082Z,9.84
2024-05-09T01:40:36.031Z,9.84
2024-05-09T01:40:39.235Z,9.82
2024-05-09T01:40:45.937Z,9.85
2024-05-09T01:40:56.246Z,9.84
2024-05-09T01:41:06.567Z,9.82
2024-05-09T01:41:16.835Z,9.84
2024-05-09T01:41:27.144Z,9.82
2024-05-09T01:41:37.460Z,9.82
2024-05-09T01:41:47.701Z,9.81
2024-05-09T01:41:58.172Z,9.82
2024-05-09T01:42:08.629Z,9.81
2024-05-09T01:42:19.110Z,9.82
2024-05-09T01:42:29.561Z,9.81
2024-05-09T01:42:40.022Z,9.80
2024-05-09T01:42:50.492Z,9.80
2024-05-09T01:43:00.984Z,9.80
2024-05-09T01:43:12.226Z,9.80
2024-05-09T01:43:21.879Z,9.80
2024-05-09T01:43:32.347Z,9.77
2024-05-09T01:43:42.914Z,9.80
2024-05-09T01:43:53.154Z,9.77
2024-05-09T01:44:03.661Z,9.76
2024-05-09T01:44:13.975Z,9.76
2024-05-09T01:44:24.277Z,9.76
2024-05-09T01:44:34.594Z,9.74
2024-05-09T01:44:44.822Z,9.76
2024-05-09T01:44:55.305Z,9.76
2024-05-09T01:45:05.540Z,9.76
2024-05-09T01:45:16.023Z,9.76
2024-05-09T01:45:26.247Z,9.74
2024-05-09T01:45:36.759Z,9.74
2024-05-09T01:45:46.971Z,9.76
2024-05-09T01:45:57.436Z,9.73
2024-05-09T01:46:07.912Z,9.73
2024-05-09T01:46:18.362Z,9.73
2024-05-09T01:46:28.831Z,9.74
2024-05-09T01:46:39.307Z,9.72
2024-05-09T01:46:49.545Z,9.73
2024-05-09T01:47:00.064Z,9.73
2024-05-09T01:47:10.396Z,9.72
2024-05-09T01:47:20.897Z,9.73
2024-05-09T01:47:31.149Z,9.73
2024-05-09T01:47:42.003Z,9.70
2024-05-09T01:47:51.883Z,9.73
2024-05-09T01:48:02.855Z,9.70
2024-05-09T01:48:12.605Z,9.72
2024-05-09T01:48:22.899Z,9.70
2024-05-09T01:48:33.077Z,9.72
2024-05-09T01:48:43.434Z,9.70
2024-05-09T01:48:53.791Z,9.70
2024-05-09T01:49:04.172Z,9.69
2024-05-09T01:49:14.583Z,9.69
2024-05-09T01:49:24.944Z,9.70
2024-05-09T01:49:35.460Z,9.70
2024-05-09T01:49:45.889Z,9.70
2024-05-09T01:49:56.177Z,9.69
2024-05-09T01:50:09.078Z,9.67
2024-05-09T01:50:22.468Z,9.69
2024-05-09T01:50:36.779Z,9.69
2024-05-09T01:50:41.652Z,9.67
2024-05-09T01:50:47.895Z,9.66
2024-05-09T01:50:58.209Z,9.66
2024-05-09T01:51:08.664Z,9.66
2024-05-09T01:51:18.868Z,9.69
2024-05-09T01:51:29.118Z,9.66
2024-05-09T01:51:39.572Z,9.64
2024-05-09T01:51:50.038Z,9.66
2024-05-09T01:52:00.501Z,9.64
2024-05-09T01:52:10.974Z,9.66
2024-05-09T01:52:21.442Z,9.64
2024-05-09T01:52:31.903Z,9.64
2024-05-09T01:52:42.532Z,9.63
2024-05-09T01:52:52.786Z,9.64
2024-05-09T01:53:03.285Z,9.64
2024-05-09T01:53:14.370Z,9.64
2024-05-09T01:53:23.895Z,9.63
2024-05-09T01:53:34.302Z,9.64
2024-05-09T01:53:44.544Z,9.62
2024-05-09T01:53:54.982Z,9.63
2024-05-09T01:54:05.447Z,9.62
2024-05-09T01:54:15.930Z,9.62
2024-05-09T01:54:26.159Z,9.62
2024-05-09T01:54:36.638Z,9.63
2024-05-09T01:54:46.886Z,9.62
2024-05-09T01:54:57.336Z,9.59
2024-05-09T01:55:07.800Z,9.62
2024-05-09T01:55:18.281Z,9.56
2024-05-09T01:55:28.727Z,9.59
2024-05-09T01:55:39.238Z,9.59
2024-05-09T01:55:49.515Z,9.59
2024-05-09T01:55:59.792Z,9.58
2024-05-09T01:56:10.088Z,9.56
2024-05-09T01:56:20.332Z,9.56
2024-05-09T01:56:30.836Z,9.56
2024-05-09T01:56:40.966Z,9.58
2024-05-09T01:56:51.217Z,9.56
2024-05-09T01:57:01.707Z,9.58
2024-05-09T01:57:12.170Z,9.58
2024-05-09T01:57:22.618Z,9.56
2024-05-09T01:57:33.078Z,9.56
2024-05-09T01:57:43.542Z,9.56
2024-05-09T01:57:54.010Z,9.56
2024-05-09T01:58:04.517Z,9.55
2024-05-09T01:58:14.713Z,9.55
2024-05-09T01:58:25.180Z,9.54
2024-05-09T01:58:35.447Z,9.55
2024-05-09T01:58:45.981Z,9.55
2024-05-09T01:58:56.231Z,9.52
2024-05-09T01:59:06.534Z,9.54
2024-05-09T01:59:16.843Z,9.54
2024-05-09T01:59:27.195Z,9.52
2024-05-09T01:59:37.529Z,9.52
2024-05-09T01:59:47.765Z,9.52
2024-05-09T01:59:58.232Z,9.54
2024-05-09T02:00:10.314Z,9.52
2024-05-09T02:00:30.041Z,9.52
2024-05-09T02:00:38.097Z,9.52
2024-05-09T02:00:42.751Z,9.49
2024-05-09T02:00:50.195Z,9.51
2024-05-09T02:01:00.702Z,9.49
2024-05-09T02:01:10.956Z,9.49
2024-05-09T02:01:21.197Z,9.49
2024-05-09T02:01:55.287Z,9.49
2024-05-09T02:01:56.185Z,9.51
2024-05-09T02:01:56.948Z,9.49
2024-05-09T02:02:02.783Z,9.47
2024-05-09T02:02:12.997Z,9.48
2024-05-09T02:02:23.447Z,9.49
2024-05-09T02:02:33.881Z,9.48
2024-05-09T02:02:44.200Z,9.48
2024-05-09T02:02:54.586Z,9.48
2024-05-09T02:03:04.908Z,9.47
2024-05-09T02:03:17.250Z,9.45
2024-05-09T02:03:27.530Z,9.48
2024-05-09T02:03:35.696Z,9.47
2024-05-09T02:03:45.932Z,9.47
2024-05-09T02:03:56.163Z,9.45
2024-05-09T02:04:06.956Z,9.45
2024-05-09T02:04:17.014Z,9.47
2024-05-09T02:04:37.800Z,9.44
2024-05-09T02:04:48.188Z,9.47
2024-05-09T02:04:58.518Z,9.47
2024-05-09T02:05:08.889Z,9.45
2024-05-09T02:05:19.332Z,9.47
2024-05-09T02:05:29.669Z,9.44
2024-05-09T02:05:40.154Z,9.44
2024-05-09T02:05:50.513Z,9.44
2024-05-09T02:06:00.620Z,9.42
2024-05-09T02:06:11.001Z,9.44
2024-05-09T02:06:21.171Z,9.44
2024-05-09T02:06:31.633Z,9.42
2024-05-09T02:06:42.104Z,9.42
2024-05-09T02:06:52.567Z,9.42
2024-05-09T02:07:03.039Z,9.40
2024-05-09T02:07:13.507Z,9.42
2024-05-09T02:07:23.970Z,9.40
2024-05-09T02:07:34.225Z,9.39
2024-05-09T02:07:44.793Z,9.40
2024-05-09T02:07:55.089Z,9.40
2024-05-09T02:08:05.381Z,9.39
2024-05-09T02:08:15.904Z,9.40
2024-05-09T02:08:26.108Z,9.39
2024-05-09T02:08:36.368Z,9.39
2024-05-09T02:08:46.583Z,9.37
2024-05-09T02:08:57.054Z,9.39
2024-05-09T02:09:07.511Z,9.37
2024-05-09T02:09:17.983Z,9.37
2024-05-09T02:09:28.494Z,9.37
2024-05-09T02:09:38.728Z,9.37
2024-05-09T02:09:49.214Z,9.37
2024-05-09T02:09:59.660Z,9.36
2024-05-09T02:10:16.499Z,9.36
2024-05-09T02:10:26.496Z,9.37
2024-05-09T02:10:33.051Z,9.37
2024-05-09T02:10:41.243Z,9.36
2024-05-09T02:10:51.651Z,9.34
2024-05-09T02:11:01.872Z,9.36
2024-05-09T02:11:12.155Z,9.34
2024-05-09T02:11:22.297Z,9.34
2024-05-09T02:11:32.571Z,9.33
2024-05-09T02:11:42.964Z,9.34
2024-05-09T02:11:53.418Z,9.34
2024-05-09T02:12:03.782Z,9.34
2024-05-09T02:12:14.104Z,9.33
2024-05-09T02:12:24.454Z,9.33
2024-05-09T02:12:34.763Z,9.33
2024-05-09T02:12:44.959Z,9.33
2024-05-09T02:12:55.445Z,9.33
2024-05-09T02:13:05.688Z,9.31
2024-05-09T02:13:16.543Z,9.31
2024-05-09T02:13:26.259Z,9.31
2024-05-09T02:13:36.743Z,9.30
2024-05-09T02:13:47.205Z,9.30
2024-05-09T02:13:57.477Z,9.30
2024-05-09T02:14:07.774Z,9.31
2024-05-09T02:14:18.044Z,9.31
2024-05-09T02:14:28.422Z,9.31
2024-05-09T02:14:38.673Z,9.30
2024-05-09T02:14:48.929Z,9.29
2024-05-09T02:14:59.171Z,9.29
2024-05-09T02:15:09.624Z,9.29
2024-05-09T02:15:19.862Z,9.29
2024-05-09T02:15:30.329Z,9.29